createdAt,value
2023-05-04T00:00:04.958Z,95484.00
2023-05-04T00:01:04.807Z,95484.00
2023-05-04T00:02:04.860Z,95486.00
2023-05-04T00:03:04.940Z,95484.00
2023-05-04T00:04:05.108Z,95484.00
2023-05-04T00:05:05.758Z,95486.00
2023-05-04T00:06:05.028Z,95486.00
2023-05-04T00:07:05.117Z,95484.00
2023-05-04T00:08:05.168Z,95484.00
2023-05-04T00:09:05.190Z,95482.00
2023-05-04T00:10:05.578Z,95484.00
2023-05-04T00:11:05.331Z,95484.00
2023-05-04T00:12:05.397Z,95484.00
2023-05-04T00:13:05.503Z,95482.00
2023-05-04T00:14:05.446Z,95484.00
2023-05-04T00:15:05.451Z,95484.00
2023-05-04T00:16:05.503Z,95482.00
2023-05-04T00:17:05.515Z,95484.00
2023-05-04T00:18:05.632Z,95486.00
2023-05-04T00:19:05.552Z,95486.00
2023-05-04T00:20:05.845Z,95486.00
2023-05-04T00:21:05.643Z,95484.00
2023-05-04T00:22:05.677Z,95482.00
2023-05-04T00:23:05.694Z,95480.00
2023-05-04T00:24:05.725Z,95478.00
2023-05-04T00:25:05.742Z,95480.00
2023-05-04T00:26:05.753Z,95478.00
2023-05-04T00:27:05.747Z,95480.00
2023-05-04T00:28:05.805Z,95480.00
2023-05-04T00:29:05.792Z,95478.00
2023-05-04T00:30:06.005Z,95480.00
2023-05-04T00:31:05.918Z,95480.00
2023-05-04T00:32:06.030Z,95480.00
2023-05-04T00:33:06.058Z,95482.00
2023-05-04T00:34:06.035Z,95480.00
2023-05-04T00:35:06.064Z,95480.00
2023-05-04T00:36:06.108Z,95480.00
2023-05-04T00:37:06.107Z,95478.00
2023-05-04T00:38:06.135Z,95480.00
2023-05-04T00:39:07.218Z,95476.00
2023-05-04T00:40:06.530Z,95478.00
2023-05-04T00:41:06.268Z,95476.00
2023-05-04T00:42:06.296Z,95476.00
2023-05-04T00:43:06.324Z,95478.00
2023-05-04T00:44:06.352Z,95478.00
2023-05-04T00:45:06.403Z,95478.00
2023-05-04T00:46:06.439Z,95478.00
2023-05-04T00:47:06.504Z,95476.00
2023-05-04T00:48:06.520Z,95478.00
2023-05-04T00:49:06.523Z,95478.00
2023-05-04T00:50:06.932Z,95480.00
2023-05-04T00:51:06.581Z,95478.00
2023-05-04T00:52:06.588Z,95478.00
2023-05-04T00:53:06.627Z,95480.00
2023-05-04T00:54:06.647Z,95482.00
2023-05-04T00:55:06.667Z,95478.00
2023-05-04T00:56:06.708Z,95476.00
2023-05-04T00:57:06.690Z,95478.00
2023-05-04T00:58:06.709Z,95480.00
2023-05-04T00:59:06.714Z,95478.00
2023-05-04T01:00:07.008Z,95476.00
2023-05-04T01:01:06.801Z,95476.00
2023-05-04T01:02:06.761Z,95476.00
2023-05-04T01:03:06.893Z,95475.00
2023-05-04T01:04:07.005Z,95476.00
2023-05-04T01:05:06.843Z,95475.00
2023-05-04T01:06:06.881Z,95475.00
2023-05-04T01:07:06.922Z,95476.00
2023-05-04T01:08:06.937Z,95476.00
2023-05-04T01:09:06.988Z,95476.00
2023-05-04T01:10:07.165Z,95478.00
2023-05-04T01:11:06.970Z,95476.00
2023-05-04T01:12:06.970Z,95476.00
2023-05-04T01:13:07.059Z,95476.00
2023-05-04T01:14:07.042Z,95478.00
2023-05-04T01:15:07.007Z,95476.00
2023-05-04T01:16:07.033Z,95478.00
2023-05-04T01:17:07.164Z,95476.00
2023-05-04T01:18:07.128Z,95476.00
2023-05-04T01:19:07.031Z,95476.00
2023-05-04T01:20:07.149Z,95476.00
2023-05-04T01:21:07.033Z,95478.00
2023-05-04T01:22:07.137Z,95476.00
2023-05-04T01:23:07.042Z,95478.00
2023-05-04T01:24:07.025Z,95478.00
2023-05-04T01:25:07.021Z,95478.00
2023-05-04T01:26:07.060Z,95478.00
2023-05-04T01:27:07.051Z,95476.00
2023-05-04T01:28:07.042Z,95476.00
2023-05-04T01:29:07.041Z,95475.00
2023-05-04T01:30:07.147Z,95473.00
2023-05-04T01:31:07.082Z,95475.00
2023-05-04T01:32:07.027Z,95475.00
2023-05-04T01:33:07.068Z,95476.00
2023-05-04T01:34:07.017Z,95476.00
2023-05-04T01:35:07.003Z,95476.00
2023-05-04T01:36:07.019Z,95476.00
2023-05-04T01:37:07.029Z,95476.00
2023-05-04T01:38:07.017Z,95478.00
2023-05-04T01:39:07.016Z,95478.00
2023-05-04T01:40:07.837Z,95478.00
2023-05-04T01:41:06.988Z,95478.00
2023-05-04T01:42:07.022Z,95478.00
2023-05-04T01:43:06.993Z,95476.00
2023-05-04T01:44:06.970Z,95476.00
2023-05-04T01:45:06.990Z,95475.00
2023-05-04T01:46:07.025Z,95476.00
2023-05-04T01:47:06.981Z,95475.00
2023-05-04T01:48:07.067Z,95475.00
2023-05-04T01:49:06.977Z,95475.00
2023-05-04T01:50:07.078Z,95475.00
2023-05-04T01:51:06.999Z,95475.00
2023-05-04T01:52:06.972Z,95473.00
2023-05-04T01:53:06.953Z,95475.00
2023-05-04T01:54:06.973Z,95476.00
2023-05-04T01:55:06.988Z,95476.00
2023-05-04T01:56:06.986Z,95478.00
2023-05-04T01:57:06.956Z,95478.00
2023-05-04T01:58:06.942Z,95480.00
2023-05-04T01:59:06.964Z,95480.00
2023-05-04T02:00:07.203Z,95480.00
2023-05-04T02:01:06.950Z,95475.00
2023-05-04T02:02:07.039Z,95480.00
2023-05-04T02:03:07.023Z,95482.00
2023-05-04T02:04:07.054Z,95480.00
2023-05-04T02:05:06.963Z,95476.00
2023-05-04T02:06:06.943Z,95476.00
2023-05-04T02:07:06.966Z,95476.00
2023-05-04T02:08:06.952Z,95476.00
2023-05-04T02:09:06.960Z,95478.00
2023-05-04T02:10:07.006Z,95478.00
2023-05-04T02:11:06.964Z,95480.00
2023-05-04T02:12:06.961Z,95478.00
2023-05-04T02:13:06.957Z,95476.00
2023-05-04T02:14:06.970Z,95476.00
2023-05-04T02:15:06.990Z,95476.00
2023-05-04T02:16:07.033Z,95475.00
2023-05-04T02:17:06.944Z,95478.00
2023-05-04T02:18:07.032Z,95475.00
2023-05-04T02:19:06.960Z,95476.00
2023-05-04T02:20:07.121Z,95480.00
2023-05-04T02:21:06.957Z,95478.00
2023-05-04T02:22:06.963Z,95478.00
2023-05-04T02:23:06.941Z,95480.00
2023-05-04T02:24:06.960Z,95476.00
2023-05-04T02:25:06.960Z,95478.00
2023-05-04T02:26:06.996Z,95478.00
2023-05-04T02:27:06.968Z,95478.00
2023-05-04T02:28:06.964Z,95478.00
2023-05-04T02:29:06.988Z,95476.00
2023-05-04T02:30:07.197Z,95478.00
2023-05-04T02:31:07.130Z,95480.00
2023-05-04T02:32:07.012Z,95478.00
2023-05-04T02:33:06.983Z,95478.00
2023-05-04T02:34:06.997Z,95478.00
2023-05-04T02:35:06.993Z,95478.00
2023-05-04T02:36:06.973Z,95476.00
2023-05-04T02:37:07.676Z,95478.00
2023-05-04T02:38:06.964Z,95480.00
2023-05-04T02:39:06.994Z,95480.00
2023-05-04T02:40:07.297Z,95482.00
2023-05-04T02:41:07.885Z,95484.00
2023-05-04T02:42:06.977Z,95484.00
2023-05-04T02:43:06.977Z,95484.00
2023-05-04T02:44:06.995Z,95482.00
2023-05-04T02:45:06.992Z,95482.00
2023-05-04T02:46:07.023Z,95484.00
2023-05-04T02:47:06.998Z,95480.00
2023-05-04T02:48:07.072Z,95482.00
2023-05-04T02:49:06.985Z,95486.00
2023-05-04T02:50:07.245Z,95486.00
2023-05-04T02:51:06.977Z,95488.00
2023-05-04T02:52:07.031Z,95484.00
2023-05-04T02:53:07.001Z,95486.00
2023-05-04T02:54:07.001Z,95488.00
2023-05-04T02:55:07.058Z,95488.00
2023-05-04T02:56:07.021Z,95488.00
2023-05-04T02:57:07.017Z,95488.00
2023-05-04T02:58:07.003Z,95490.00
2023-05-04T02:59:06.978Z,95490.00
2023-05-04T03:00:07.315Z,95490.00
2023-05-04T03:01:07.032Z,95488.00
2023-05-04T03:02:06.982Z,95488.00
2023-05-04T03:03:06.986Z,95488.00
2023-05-04T03:04:07.032Z,95486.00
2023-05-04T03:05:06.988Z,95490.00
2023-05-04T03:06:07.007Z,95490.00
2023-05-04T03:07:06.996Z,95490.00
2023-05-04T03:08:06.985Z,95488.00
2023-05-04T03:09:06.947Z,95490.00
2023-05-04T03:10:07.043Z,95490.00
2023-05-04T03:11:06.973Z,95490.00
2023-05-04T03:12:06.946Z,95492.00
2023-05-04T03:13:06.986Z,95492.00
2023-05-04T03:14:07.019Z,95494.00
2023-05-04T03:15:06.974Z,95494.00
2023-05-04T03:16:06.976Z,95492.00
2023-05-04T03:17:06.970Z,95492.00
2023-05-04T03:18:07.031Z,95492.00
2023-05-04T03:19:06.944Z,95492.00
2023-05-04T03:20:07.217Z,95494.00
2023-05-04T03:21:06.954Z,95492.00
2023-05-04T03:22:06.956Z,95494.00
2023-05-04T03:23:06.943Z,95494.00
2023-05-04T03:24:06.922Z,95494.00
2023-05-04T03:25:06.939Z,95494.00
2023-05-04T03:26:06.967Z,95494.00
2023-05-04T03:27:06.927Z,95496.00
2023-05-04T03:28:06.909Z,95498.00
2023-05-04T03:29:06.924Z,95500.00
2023-05-04T03:30:07.166Z,95500.00
2023-05-04T03:31:06.912Z,95500.00
2023-05-04T03:32:07.052Z,95500.00
2023-05-04T03:33:06.996Z,95498.00
2023-05-04T03:34:06.982Z,95498.00
2023-05-04T03:35:06.947Z,95498.00
2023-05-04T03:36:06.944Z,95500.00
2023-05-04T03:37:06.934Z,95500.00
2023-05-04T03:38:06.964Z,95500.00
2023-05-04T03:39:06.942Z,95500.00
2023-05-04T03:40:07.228Z,95500.00
2023-05-04T03:41:06.926Z,95500.00
2023-05-04T03:42:07.769Z,95500.00
2023-05-04T03:43:06.920Z,95502.00
2023-05-04T03:44:06.910Z,95502.00
2023-05-04T03:45:06.944Z,95500.00
2023-05-04T03:46:06.969Z,95502.00
2023-05-04T03:47:06.930Z,95500.00
2023-05-04T03:48:06.928Z,95500.00
2023-05-04T03:49:06.921Z,95500.00
2023-05-04T03:50:07.444Z,95502.00
2023-05-04T03:51:06.956Z,95502.00
2023-05-04T03:52:06.955Z,95502.00
2023-05-04T03:53:06.941Z,95502.00
2023-05-04T03:54:06.947Z,95502.00
2023-05-04T03:55:06.929Z,95502.00
2023-05-04T03:56:06.962Z,95500.00
2023-05-04T03:57:06.921Z,95498.00
2023-05-04T03:58:06.935Z,95498.00
2023-05-04T03:59:06.936Z,95496.00
2023-05-04T04:00:07.040Z,95498.00
2023-05-04T04:01:06.939Z,95500.00
2023-05-04T04:02:06.995Z,95500.00
2023-05-04T04:03:07.060Z,95500.00
2023-05-04T04:04:07.008Z,95502.00
2023-05-04T04:05:07.000Z,95502.00
2023-05-04T04:06:06.969Z,95504.00
2023-05-04T04:07:07.024Z,95502.00
2023-05-04T04:08:07.013Z,95500.00
2023-05-04T04:09:07.034Z,95502.00
2023-05-04T04:10:07.255Z,95504.00
2023-05-04T04:11:07.020Z,95502.00
2023-05-04T04:12:07.039Z,95504.00
2023-05-04T04:13:07.115Z,95502.00
2023-05-04T04:14:07.039Z,95502.00
2023-05-04T04:15:07.033Z,95504.00
2023-05-04T04:16:07.086Z,95504.00
2023-05-04T04:17:07.041Z,95504.00
2023-05-04T04:18:07.184Z,95504.00
2023-05-04T04:19:07.049Z,95504.00
2023-05-04T04:20:07.326Z,95504.00
2023-05-04T04:21:07.060Z,95500.00
2023-05-04T04:22:07.087Z,95502.00
2023-05-04T04:23:07.040Z,95504.00
2023-05-04T04:24:07.034Z,95502.00
2023-05-04T04:25:07.065Z,95502.00
2023-05-04T04:26:07.030Z,95506.00
2023-05-04T04:27:07.051Z,95506.00
2023-05-04T04:28:07.045Z,95504.00
2023-05-04T04:29:07.048Z,95504.00
2023-05-04T04:30:07.193Z,95502.00
2023-05-04T04:31:07.113Z,95502.00
2023-05-04T04:32:07.107Z,95502.00
2023-05-04T04:33:07.154Z,95504.00
2023-05-04T04:34:07.211Z,95500.00
2023-05-04T04:35:07.121Z,95502.00
2023-05-04T04:36:07.151Z,95502.00
2023-05-04T04:37:07.172Z,95500.00
2023-05-04T04:38:07.166Z,95502.00
2023-05-04T04:39:07.172Z,95502.00
2023-05-04T04:40:07.249Z,95498.00
2023-05-04T04:41:07.169Z,95498.00
2023-05-04T04:42:07.222Z,95498.00
2023-05-04T04:43:07.206Z,95496.00
2023-05-04T04:44:08.203Z,95498.00
2023-05-04T04:45:07.183Z,95500.00
2023-05-04T04:46:07.216Z,95500.00
2023-05-04T04:47:07.221Z,95498.00
2023-05-04T04:48:07.289Z,95498.00
2023-05-04T04:49:07.222Z,95498.00
2023-05-04T04:50:07.515Z,95502.00
2023-05-04T04:51:07.210Z,95502.00
2023-05-04T04:52:07.236Z,95502.00
2023-05-04T04:53:07.202Z,95502.00
2023-05-04T04:54:07.305Z,95502.00
2023-05-04T04:55:07.215Z,95504.00
2023-05-04T04:56:07.247Z,95502.00
2023-05-04T04:57:07.234Z,95502.00
2023-05-04T04:58:07.277Z,95504.00
2023-05-04T04:59:07.259Z,95504.00
2023-05-04T05:00:07.380Z,95502.00
2023-05-04T05:01:07.335Z,95506.00
2023-05-04T05:02:07.312Z,95506.00
2023-05-04T05:03:07.392Z,95506.00
2023-05-04T05:04:07.343Z,95504.00
2023-05-04T05:05:07.515Z,95504.00
2023-05-04T05:06:07.372Z,95508.00
2023-05-04T05:07:07.354Z,95506.00
2023-05-04T05:08:07.370Z,95506.00
2023-05-04T05:09:07.361Z,95508.00
2023-05-04T05:10:07.559Z,95508.00
2023-05-04T05:11:07.403Z,95508.00
2023-05-04T05:12:07.382Z,95510.00
2023-05-04T05:13:07.469Z,95512.00
2023-05-04T05:14:07.398Z,95508.00
2023-05-04T05:15:07.434Z,95508.00
2023-05-04T05:16:07.472Z,95504.00
2023-05-04T05:17:07.443Z,95504.00
2023-05-04T05:18:07.499Z,95508.00
2023-05-04T05:19:07.454Z,95502.00
2023-05-04T05:20:07.456Z,95506.00
2023-05-04T05:21:07.483Z,95506.00
2023-05-04T05:22:07.444Z,95508.00
2023-05-04T05:23:07.654Z,95506.00
2023-05-04T05:24:07.488Z,95506.00
2023-05-04T05:25:07.509Z,95506.00
2023-05-04T05:26:07.507Z,95504.00
2023-05-04T05:27:07.514Z,95502.00
2023-05-04T05:28:07.508Z,95506.00
2023-05-04T05:29:07.518Z,95502.00
2023-05-04T05:30:07.749Z,95506.00
2023-05-04T05:31:07.674Z,95504.00
2023-05-04T05:32:07.525Z,95504.00
2023-05-04T05:33:07.530Z,95502.00
2023-05-04T05:34:07.522Z,95504.00
2023-05-04T05:35:07.536Z,95502.00
2023-05-04T05:36:07.525Z,95504.00
2023-05-04T05:37:07.536Z,95502.00
2023-05-04T05:38:07.547Z,95502.00
2023-05-04T05:39:07.654Z,95504.00
2023-05-04T05:40:07.761Z,95504.00
2023-05-04T05:41:07.534Z,95506.00
2023-05-04T05:42:07.915Z,95504.00
2023-05-04T05:43:07.520Z,95506.00
2023-05-04T05:44:08.408Z,95504.00
2023-05-04T05:45:07.523Z,95508.00
2023-05-04T05:46:07.572Z,95508.00
2023-05-04T05:47:07.566Z,95506.00
2023-05-04T05:48:07.668Z,95506.00
2023-05-04T05:49:07.566Z,95508.00
2023-05-04T05:50:07.815Z,95504.00
2023-05-04T05:51:07.550Z,95506.00
2023-05-04T05:52:07.613Z,95506.00
2023-05-04T05:53:07.611Z,95510.00
2023-05-04T05:54:07.629Z,95504.00
2023-05-04T05:55:07.567Z,95502.00
2023-05-04T05:56:07.595Z,95502.00
2023-05-04T05:57:07.937Z,95506.00
2023-05-04T05:58:07.590Z,95504.00
2023-05-04T05:59:07.617Z,95504.00
2023-05-04T06:00:07.794Z,95504.00
2023-05-04T06:01:07.592Z,95502.00
2023-05-04T06:02:07.774Z,95502.00
2023-05-04T06:03:08.081Z,95504.00
2023-05-04T06:04:07.735Z,95500.00
2023-05-04T06:05:07.617Z,95502.00
2023-05-04T06:06:07.601Z,95500.00
2023-05-04T06:07:07.616Z,95498.00
2023-05-04T06:08:07.607Z,95498.00
2023-05-04T06:09:07.594Z,95498.00
2023-05-04T06:10:08.013Z,95498.00
2023-05-04T06:11:07.582Z,95498.00
2023-05-04T06:12:07.611Z,95496.00
2023-05-04T06:13:07.611Z,95496.00
2023-05-04T06:14:07.605Z,95496.00
2023-05-04T06:15:07.603Z,95492.00
2023-05-04T06:16:07.666Z,95490.00
2023-05-04T06:17:07.616Z,95492.00
2023-05-04T06:18:07.680Z,95488.00
2023-05-04T06:19:07.591Z,95486.00
2023-05-04T06:20:07.719Z,95488.00
2023-05-04T06:21:07.618Z,95486.00
2023-05-04T06:22:07.621Z,95486.00
2023-05-04T06:23:07.628Z,95486.00
2023-05-04T06:24:07.594Z,95484.00
2023-05-04T06:25:08.340Z,95482.00
2023-05-04T06:26:07.598Z,95482.00
2023-05-04T06:27:07.613Z,95482.00
2023-05-04T06:28:07.618Z,95480.00
2023-05-04T06:29:07.627Z,95482.00
2023-05-04T06:30:07.749Z,95482.00
2023-05-04T06:31:07.626Z,95480.00
2023-05-04T06:32:07.674Z,95480.00
2023-05-04T06:33:07.734Z,95480.00
2023-05-04T06:34:07.616Z,95478.00
2023-05-04T06:35:07.561Z,95478.00
2023-05-04T06:36:07.605Z,95478.00
2023-05-04T06:37:07.573Z,95478.00
2023-05-04T06:38:07.586Z,95475.00
2023-05-04T06:39:07.590Z,95476.00
2023-05-04T06:40:07.647Z,95475.00
2023-05-04T06:41:07.583Z,95476.00
2023-05-04T06:42:07.669Z,95476.00
2023-05-04T06:43:07.578Z,95475.00
2023-05-04T06:44:07.592Z,95475.00
2023-05-04T06:45:08.664Z,95473.00
2023-05-04T06:46:07.592Z,95475.00
2023-05-04T06:47:07.614Z,95473.00
2023-05-04T06:48:07.612Z,95471.00
2023-05-04T06:49:07.577Z,95469.00
2023-05-04T06:50:07.563Z,95469.00
2023-05-04T06:51:07.600Z,95467.00
2023-05-04T06:52:07.584Z,95463.00
2023-05-04T06:53:07.593Z,95463.00
2023-05-04T06:54:07.553Z,95465.00
2023-05-04T06:55:07.543Z,95459.00
2023-05-04T06:56:07.553Z,95459.00
2023-05-04T06:57:07.543Z,95459.00
2023-05-04T06:58:07.566Z,95459.00
2023-05-04T06:59:07.548Z,95461.00
2023-05-04T07:00:07.632Z,95459.00
2023-05-04T07:01:07.554Z,95457.00
2023-05-04T07:02:07.520Z,95457.00
2023-05-04T07:03:07.657Z,95455.00
2023-05-04T07:04:07.643Z,95457.00
2023-05-04T07:05:07.522Z,95455.00
2023-05-04T07:06:07.523Z,95455.00
2023-05-04T07:07:07.489Z,95455.00
2023-05-04T07:08:07.969Z,95453.00
2023-05-04T07:09:07.510Z,95457.00
2023-05-04T07:10:07.517Z,95453.00
2023-05-04T07:11:07.509Z,95453.00
2023-05-04T07:12:07.509Z,95453.00
2023-05-04T07:13:07.636Z,95453.00
2023-05-04T07:14:09.752Z,95451.00
2023-05-04T07:15:07.496Z,95449.00
2023-05-04T07:16:07.582Z,95449.00
2023-05-04T07:17:07.463Z,95445.00
2023-05-04T07:18:07.522Z,95445.00
2023-05-04T07:19:07.451Z,95443.00
2023-05-04T07:20:07.581Z,95439.00
2023-05-04T07:21:26.106Z,95441.00
2023-05-04T07:22:08.417Z,95441.00
2023-05-04T07:23:07.443Z,95443.00
2023-05-04T07:24:07.458Z,95439.00
2023-05-04T07:25:07.444Z,95435.00
2023-05-04T07:26:07.424Z,95437.00
2023-05-04T07:27:07.453Z,95437.00
2023-05-04T07:28:07.418Z,95437.00
2023-05-04T07:29:07.395Z,95437.00
2023-05-04T07:30:07.791Z,95435.00
2023-05-04T07:31:07.414Z,95431.00
2023-05-04T07:32:07.412Z,95431.00
2023-05-04T07:33:07.414Z,95429.00
2023-05-04T07:34:07.353Z,95429.00
2023-05-04T07:35:07.334Z,95428.00
2023-05-04T07:36:07.350Z,95428.00
2023-05-04T07:37:07.365Z,95428.00
2023-05-04T07:38:07.448Z,95426.00
2023-05-04T07:39:07.330Z,95422.00
2023-05-04T07:40:07.645Z,95418.00
2023-05-04T07:41:07.372Z,95418.00
2023-05-04T07:42:07.329Z,95414.00
2023-05-04T07:43:07.459Z,95414.00
2023-05-04T07:44:07.345Z,95410.00
2023-05-04T07:45:07.301Z,95410.00
2023-05-04T07:46:10.154Z,95406.00
2023-05-04T07:47:07.318Z,95398.00
2023-05-04T07:48:07.483Z,95394.00
2023-05-04T07:49:07.269Z,95394.00
2023-05-04T07:50:07.426Z,95394.00
2023-05-04T07:51:07.248Z,95392.00
2023-05-04T07:52:07.261Z,95390.00
2023-05-04T07:53:07.238Z,95388.00
2023-05-04T07:54:07.240Z,95386.00
2023-05-04T07:55:07.237Z,95382.00
2023-05-04T07:56:07.212Z,95380.00
2023-05-04T07:57:07.226Z,95382.00
2023-05-04T07:58:07.464Z,95378.00
2023-05-04T07:59:07.245Z,95376.00
2023-05-04T08:00:07.391Z,95375.00
2023-05-04T08:01:07.202Z,95375.00
2023-05-04T08:02:07.264Z,95371.00
2023-05-04T08:03:07.269Z,95371.00
2023-05-04T08:04:07.170Z,95369.00
2023-05-04T08:05:07.168Z,95367.00
2023-05-04T08:06:07.184Z,95363.00
2023-05-04T08:07:07.170Z,95361.00
2023-05-04T08:08:07.299Z,95361.00
2023-05-04T08:09:07.153Z,95357.00
2023-05-04T08:10:07.321Z,95357.00
2023-05-04T08:11:19.441Z,95357.00
2023-05-04T08:12:08.326Z,95357.00
2023-05-04T08:13:07.145Z,95355.00
2023-05-04T08:14:07.122Z,95355.00
2023-05-04T08:15:07.187Z,95355.00
2023-05-04T08:16:07.114Z,95355.00
2023-05-04T08:17:07.105Z,95355.00
2023-05-04T08:18:07.191Z,95355.00
2023-05-04T08:19:07.077Z,95351.00
2023-05-04T08:20:07.079Z,95353.00
2023-05-04T08:21:07.054Z,95353.00
2023-05-04T08:22:07.044Z,95351.00
2023-05-04T08:23:07.071Z,95351.00
2023-05-04T08:24:07.105Z,95349.00
2023-05-04T08:25:07.230Z,95347.00
2023-05-04T08:26:07.032Z,95345.00
2023-05-04T08:27:08.749Z,95353.00
2023-05-04T08:28:07.106Z,95351.00
2023-05-04T08:29:07.212Z,95345.00
2023-05-04T08:30:07.179Z,95349.00
2023-05-04T08:31:07.221Z,95347.00
2023-05-04T08:32:07.255Z,95347.00
2023-05-04T08:33:07.269Z,95347.00
2023-05-04T08:34:07.353Z,95347.00
2023-05-04T08:35:07.450Z,95345.00
2023-05-04T08:36:07.328Z,95339.00
2023-05-04T08:37:07.359Z,95345.00
2023-05-04T08:38:07.389Z,95341.00
2023-05-04T08:39:07.453Z,95339.00
2023-05-04T08:40:07.480Z,95337.00
2023-05-04T08:41:07.502Z,95337.00
2023-05-04T08:42:07.552Z,95337.00
2023-05-04T08:43:07.568Z,95335.00
2023-05-04T08:44:07.596Z,95335.00
2023-05-04T08:45:07.578Z,95331.00
2023-05-04T08:46:07.715Z,95335.00
2023-05-04T08:47:07.692Z,95331.00
2023-05-04T08:48:07.826Z,95331.00
2023-05-04T08:49:07.794Z,95331.00
2023-05-04T08:50:07.860Z,95329.00
2023-05-04T08:51:07.891Z,95329.00
2023-05-04T08:52:07.953Z,95326.00
2023-05-04T08:53:07.990Z,95322.00
2023-05-04T08:54:08.063Z,95326.00
2023-05-04T08:55:08.106Z,95326.00
2023-05-04T08:56:08.164Z,95324.00
2023-05-04T08:57:08.256Z,95324.00
2023-05-04T08:58:08.293Z,95324.00
2023-05-04T08:59:08.376Z,95320.00
2023-05-04T09:00:08.438Z,95322.00
2023-05-04T09:01:08.683Z,95322.00
2023-05-04T09:02:08.570Z,95320.00
2023-05-04T09:03:08.729Z,95320.00
2023-05-04T09:04:08.666Z,95318.00
2023-05-04T09:05:08.690Z,95318.00
2023-05-04T09:06:08.715Z,95318.00
2023-05-04T09:07:08.786Z,95320.00
2023-05-04T09:08:08.816Z,95318.00
2023-05-04T09:09:08.816Z,95316.00
2023-05-04T09:10:08.897Z,95316.00
2023-05-04T09:11:08.934Z,95314.00
2023-05-04T09:12:09.000Z,95316.00
2023-05-04T09:13:09.482Z,95316.00
2023-05-04T09:14:09.048Z,95316.00
2023-05-04T09:15:09.112Z,95316.00
2023-05-04T09:16:09.150Z,95312.00
2023-05-04T09:17:09.321Z,95310.00
2023-05-04T09:18:09.320Z,95312.00
2023-05-04T09:19:09.338Z,95310.00
2023-05-04T09:20:09.400Z,95308.00
2023-05-04T09:21:09.546Z,95306.00
2023-05-04T09:22:09.532Z,95304.00
2023-05-04T09:23:09.656Z,95304.00
2023-05-04T09:24:09.664Z,95302.00
2023-05-04T09:25:09.713Z,95300.00
2023-05-04T09:26:09.748Z,95298.00
2023-05-04T09:27:09.788Z,95296.00
2023-05-04T09:28:09.829Z,95294.00
2023-05-04T09:29:09.916Z,95292.00
2023-05-04T09:30:09.976Z,95288.00
2023-05-04T09:31:10.030Z,95288.00
2023-05-04T09:32:10.112Z,95288.00
2023-05-04T09:33:10.111Z,95284.00
2023-05-04T09:34:10.171Z,95282.00
2023-05-04T09:35:12.239Z,95280.00
2023-05-04T09:36:11.235Z,95282.00
2023-05-04T09:37:10.240Z,95284.00
2023-05-04T09:38:10.498Z,95280.00
2023-05-04T09:39:11.412Z,95278.00
2023-05-04T09:40:10.217Z,95282.00
2023-05-04T09:41:10.186Z,95278.00
2023-05-04T09:42:10.223Z,95276.00
2023-05-04T09:43:10.517Z,95276.00
2023-05-04T09:44:10.249Z,95274.00
2023-05-04T09:45:10.298Z,95271.00
2023-05-04T09:46:10.405Z,95269.00
2023-05-04T09:47:10.422Z,95265.00
2023-05-04T09:48:10.483Z,95263.00
2023-05-04T09:49:10.584Z,95261.00
2023-05-04T09:50:10.637Z,95261.00
2023-05-04T09:51:10.683Z,95261.00
2023-05-04T09:52:10.754Z,95257.00
2023-05-04T09:53:10.847Z,95259.00
2023-05-04T09:54:10.905Z,95257.00
2023-05-04T09:55:10.932Z,95257.00
2023-05-04T09:56:11.029Z,95253.00
2023-05-04T09:57:11.058Z,95251.00
2023-05-04T09:58:11.136Z,95249.00
2023-05-04T09:59:11.185Z,95249.00
2023-05-04T10:00:11.444Z,95253.00
2023-05-04T10:01:11.338Z,95251.00
2023-05-04T10:02:21.702Z,95249.00
2023-05-04T10:03:12.396Z,95243.00
2023-05-04T10:04:11.330Z,95247.00
2023-05-04T10:05:11.343Z,95247.00
2023-05-04T10:06:11.338Z,95243.00
2023-05-04T10:07:11.303Z,95245.00
2023-05-04T10:08:11.337Z,95239.00
2023-05-04T10:09:11.273Z,95239.00
2023-05-04T10:10:11.313Z,95235.00
2023-05-04T10:11:11.312Z,95233.00
2023-05-04T10:12:11.310Z,95229.00
2023-05-04T10:13:11.376Z,95229.00
2023-05-04T10:14:11.358Z,95227.00
2023-05-04T10:15:11.419Z,95227.00
2023-05-04T10:16:11.492Z,95226.00
2023-05-04T10:17:13.751Z,95224.00
2023-05-04T10:18:11.578Z,95222.00
2023-05-04T10:19:11.626Z,95220.00
2023-05-04T10:20:11.690Z,95222.00
2023-05-04T10:21:11.744Z,95216.00
2023-05-04T10:22:11.776Z,95214.00
2023-05-04T10:23:11.935Z,95216.00
2023-05-04T10:24:11.934Z,95212.00
2023-05-04T10:25:11.961Z,95208.00
2023-05-04T10:26:11.997Z,95208.00
2023-05-04T10:27:12.084Z,95204.00
2023-05-04T10:28:12.119Z,95204.00
2023-05-04T10:29:12.156Z,95204.00
2023-05-04T10:30:12.255Z,95202.00
2023-05-04T10:31:12.314Z,95200.00
2023-05-04T10:32:12.344Z,95198.00
2023-05-04T10:33:12.381Z,95200.00
2023-05-04T10:34:12.481Z,95198.00
2023-05-04T10:35:12.504Z,95194.00
2023-05-04T10:36:12.545Z,95194.00
2023-05-04T10:37:12.642Z,95192.00
2023-05-04T10:38:12.660Z,95192.00
2023-05-04T10:39:12.692Z,95192.00
2023-05-04T10:40:12.782Z,95188.00
2023-05-04T10:41:12.809Z,95186.00
2023-05-04T10:42:12.861Z,95186.00
2023-05-04T10:43:12.957Z,95184.00
2023-05-04T10:44:12.955Z,95182.00
2023-05-04T10:45:13.030Z,95179.00
2023-05-04T10:46:13.096Z,95179.00
2023-05-04T10:47:13.150Z,95179.00
2023-05-04T10:48:13.235Z,95177.00
2023-05-04T10:49:13.286Z,95179.00
2023-05-04T10:50:13.342Z,95173.00
2023-05-04T10:51:13.383Z,95177.00
2023-05-04T10:52:13.470Z,95173.00
2023-05-04T10:53:13.503Z,95171.00
2023-05-04T10:54:14.525Z,95167.00
2023-05-04T10:55:13.606Z,95171.00
2023-05-04T10:56:13.701Z,95165.00
2023-05-04T10:57:13.775Z,95165.00
2023-05-04T10:58:13.803Z,95163.00
2023-05-04T10:59:13.863Z,95161.00
2023-05-04T11:00:13.923Z,95155.00
2023-05-04T11:01:14.010Z,95155.00
2023-05-04T11:02:14.086Z,95153.00
2023-05-04T11:03:14.317Z,95149.00
2023-05-04T11:04:14.170Z,95149.00
2023-05-04T11:05:14.253Z,95149.00
2023-05-04T11:06:14.293Z,95139.00
2023-05-04T11:07:14.368Z,95137.00
2023-05-04T11:08:14.395Z,95139.00
2023-05-04T11:09:14.490Z,95137.00
2023-05-04T11:10:14.564Z,95135.00
2023-05-04T11:11:14.592Z,95131.00
2023-05-04T11:12:14.662Z,95129.00
2023-05-04T11:13:14.778Z,95127.00
2023-05-04T11:14:14.796Z,95127.00
2023-05-04T11:15:14.827Z,95126.00
2023-05-04T11:16:14.967Z,95124.00
2023-05-04T11:18:15.088Z,95124.00
2023-05-04T11:19:14.936Z,95122.00
2023-05-04T11:20:14.936Z,95122.00
2023-05-04T11:21:14.957Z,95124.00
2023-05-04T11:22:14.904Z,95122.00
2023-05-04T11:23:14.955Z,95122.00
2023-05-04T11:24:14.940Z,95120.00
2023-05-04T11:25:14.911Z,95118.00
2023-05-04T11:26:14.892Z,95116.00
2023-05-04T11:27:14.894Z,95114.00
2023-05-04T11:28:15.057Z,95112.00
2023-05-04T11:29:14.966Z,95110.00
2023-05-04T11:30:14.963Z,95108.00
2023-05-04T11:31:14.917Z,95106.00
2023-05-04T11:32:14.879Z,95104.00
2023-05-04T11:33:14.879Z,95104.00
2023-05-04T11:34:15.012Z,95102.00
2023-05-04T11:35:14.873Z,95098.00
2023-05-04T11:36:14.835Z,95100.00
2023-05-04T11:37:14.829Z,95098.00
2023-05-04T11:38:14.858Z,95096.00
2023-05-04T11:39:14.846Z,95092.00
2023-05-04T11:40:14.896Z,95094.00
2023-05-04T11:41:14.842Z,95090.00
2023-05-04T11:42:14.829Z,95092.00
2023-05-04T11:43:14.824Z,95090.00
2023-05-04T11:44:15.023Z,95088.00
2023-05-04T11:45:14.810Z,95090.00